createdAt,value
2023-04-09T00:01:08.974Z,87.99
2023-04-09T00:04:11.665Z,88.36
2023-04-09T00:07:14.235Z,87.42
2023-04-09T00:10:17.363Z,87.77
2023-04-09T00:13:28.244Z,87.29
2023-04-09T00:16:38.476Z,87.60
2023-04-09T00:19:41.248Z,87.89
2023-04-09T00:22:44.333Z,88.33
2023-04-09T00:25:46.822Z,88.87
2023-04-09T00:28:49.588Z,89.47
2023-04-09T00:31:52.270Z,89.49
2023-04-09T00:34:54.771Z,89.41
2023-04-09T00:37:57.280Z,88.97
2023-04-09T00:40:59.990Z,88.95
2023-04-09T00:44:02.529Z,89.65
2023-04-09T00:47:05.388Z,89.82
2023-04-09T00:50:08.404Z,89.46
2023-04-09T00:53:12.421Z,89.48
2023-04-09T00:56:17.374Z,89.81
2023-04-09T00:59:20.835Z,89.62
2023-04-09T01:02:23.509Z,90.19
2023-04-09T01:05:34.398Z,90.10
2023-04-09T01:08:59.528Z,89.98
2023-04-09T01:12:09.477Z,89.80
2023-04-09T01:15:18.368Z,89.67
2023-04-09T01:18:43.057Z,88.99
2023-04-09T01:21:46.613Z,89.21
2023-04-09T01:25:33.814Z,89.50
2023-04-09T01:28:42.885Z,88.89
2023-04-09T01:31:46.664Z,88.97
2023-04-09T01:34:50.103Z,89.32
2023-04-09T01:37:54.505Z,89.49
2023-04-09T01:40:58.057Z,89.74
2023-04-09T01:44:03.318Z,89.41
2023-04-09T01:47:07.226Z,89.52
2023-04-09T01:50:10.409Z,89.62
2023-04-09T01:53:13.575Z,89.79
2023-04-09T01:56:17.395Z,88.87
2023-04-09T01:59:19.908Z,88.44
2023-04-09T02:02:49.006Z,88.00
2023-04-09T02:06:17.386Z,89.02
2023-04-09T02:09:21.712Z,88.83
2023-04-09T02:12:25.509Z,88.99
2023-04-09T02:15:29.199Z,88.83
2023-04-09T02:18:32.767Z,88.93
2023-04-09T02:21:36.351Z,89.37
2023-04-09T02:24:40.561Z,89.11
2023-04-09T02:27:43.127Z,88.85
2023-04-09T02:30:46.282Z,89.12
2023-04-09T02:33:48.852Z,89.35
2023-04-09T02:36:51.429Z,89.10
2023-04-09T02:39:53.909Z,89.53
2023-04-09T02:42:56.536Z,89.30
2023-04-09T02:45:59.124Z,89.50
2023-04-09T02:49:02.192Z,88.41
2023-04-09T02:52:05.321Z,88.03
2023-04-09T02:55:08.455Z,88.17
2023-04-09T02:58:11.005Z,88.25
2023-04-09T03:01:13.810Z,88.01
2023-04-09T03:04:17.496Z,88.21
2023-04-09T03:07:20.222Z,88.81
2023-04-09T03:10:22.786Z,88.43
2023-04-09T03:13:27.423Z,88.34
2023-04-09T03:16:29.955Z,88.08
2023-04-09T03:19:32.656Z,88.33
2023-04-09T03:22:39.655Z,88.21
2023-04-09T03:26:06.292Z,87.82
2023-04-09T03:29:19.718Z,87.91
2023-04-09T03:32:22.823Z,87.31
2023-04-09T03:35:25.816Z,86.98
2023-04-09T03:38:34.174Z,87.64
2023-04-09T03:41:42.220Z,87.75
2023-04-09T03:44:49.282Z,88.51
2023-04-09T03:48:01.718Z,88.48
2023-04-09T03:51:04.638Z,88.28
2023-04-09T03:54:14.603Z,88.54
2023-04-09T03:57:17.715Z,88.25
2023-04-09T04:00:22.532Z,88.73
2023-04-09T04:03:47.399Z,88.28
2023-04-09T04:06:57.636Z,88.18
2023-04-09T04:10:06.268Z,88.10
2023-04-09T04:13:11.134Z,88.14
2023-04-09T04:16:26.246Z,88.22
2023-04-09T04:19:30.871Z,87.11
2023-04-09T04:22:35.013Z,87.09
2023-04-09T04:25:42.717Z,86.71
2023-04-09T04:28:48.847Z,86.73
2023-04-09T04:32:02.818Z,86.60
2023-04-09T04:35:11.370Z,86.49
2023-04-09T04:38:14.891Z,86.43
2023-04-09T04:41:17.697Z,86.75
2023-04-09T04:44:27.500Z,86.22
2023-04-09T04:47:39.421Z,86.28
2023-04-09T04:50:42.032Z,86.78
2023-04-09T04:53:46.011Z,86.51
2023-04-09T04:56:49.852Z,87.20
2023-04-09T05:00:05.174Z,87.32
2023-04-09T05:03:07.919Z,87.44
2023-04-09T05:06:29.834Z,87.74
2023-04-09T05:09:33.865Z,87.27
2023-04-09T05:12:40.584Z,87.12
2023-04-09T05:15:44.695Z,87.01
2023-04-09T05:18:48.009Z,87.29
2023-04-09T05:21:50.643Z,85.97
2023-04-09T05:24:58.622Z,86.33
2023-04-09T05:28:01.809Z,85.94
2023-04-09T05:31:11.993Z,85.84
2023-04-09T05:34:20.658Z,85.00
2023-04-09T05:37:27.153Z,84.71
2023-04-09T05:40:30.468Z,84.47
2023-04-09T05:43:33.816Z,84.54
2023-04-09T05:46:36.431Z,82.79
2023-04-09T05:49:39.728Z,83.04
2023-04-09T05:52:46.769Z,83.49
2023-04-09T05:55:50.773Z,83.36
2023-04-09T05:58:55.999Z,82.49
2023-04-09T06:01:58.862Z,82.14
2023-04-09T06:05:01.667Z,82.11
2023-04-09T06:08:04.401Z,82.95
2023-04-09T06:11:10.590Z,82.39
2023-04-09T06:14:16.536Z,82.91
2023-04-09T06:17:19.181Z,81.98
2023-04-09T06:20:21.954Z,81.07
2023-04-09T06:23:24.390Z,80.33
2023-04-09T06:26:27.166Z,80.84
2023-04-09T06:29:29.783Z,80.61
2023-04-09T06:32:37.718Z,80.77
2023-04-09T06:35:46.842Z,80.74
2023-04-09T06:38:50.077Z,80.02
2023-04-09T06:41:52.890Z,79.68
2023-04-09T06:45:13.010Z,78.90
2023-04-09T06:48:15.509Z,77.34
2023-04-09T06:51:18.027Z,77.55
2023-04-09T06:54:20.871Z,78.65
2023-04-09T06:57:23.381Z,77.51
2023-04-09T07:00:26.190Z,77.50
2023-04-09T07:03:29.900Z,77.53
2023-04-09T07:06:32.690Z,77.17
2023-04-09T07:09:35.152Z,77.97
2023-04-09T07:12:37.760Z,76.50
2023-04-09T07:15:41.708Z,76.44
2023-04-09T07:18:45.478Z,76.56
2023-04-09T07:21:47.963Z,77.14
2023-04-09T07:24:54.393Z,78.16
2023-04-09T07:27:57.230Z,78.73
2023-04-09T07:31:05.439Z,78.00
2023-04-09T07:34:08.192Z,77.32
2023-04-09T07:37:11.375Z,76.83
2023-04-09T07:40:15.157Z,78.65
2023-04-09T07:43:18.436Z,76.81
2023-04-09T07:46:22.266Z,76.94
2023-04-09T07:49:24.932Z,76.41
2023-04-09T07:52:27.688Z,76.94
2023-04-09T07:55:30.873Z,77.26
2023-04-09T07:58:33.498Z,77.08
2023-04-09T08:01:36.475Z,76.55
2023-04-09T08:04:39.194Z,72.96
2023-04-09T08:07:42.054Z,73.34
2023-04-09T08:10:45.753Z,74.72
2023-04-09T08:13:48.382Z,73.99
2023-04-09T08:16:51.488Z,72.78
2023-04-09T08:19:54.125Z,73.69
2023-04-09T08:22:57.720Z,73.67
2023-04-09T08:26:00.344Z,74.44
2023-04-09T08:29:02.901Z,74.79
2023-04-09T08:32:06.223Z,72.99
2023-04-09T08:35:09.465Z,73.25
2023-04-09T08:38:12.007Z,72.39
2023-04-09T08:41:22.364Z,71.56
2023-04-09T08:44:29.454Z,70.83
2023-04-09T08:47:34.270Z,69.92
2023-04-09T08:50:37.309Z,69.95
2023-04-09T08:53:42.836Z,69.54
2023-04-09T08:56:45.577Z,67.57
2023-04-09T08:59:48.083Z,68.54
2023-04-09T09:03:07.034Z,67.08
2023-04-09T09:06:22.010Z,66.29
2023-04-09T09:09:24.985Z,65.48
2023-04-09T09:12:41.908Z,63.17
2023-04-09T09:15:46.308Z,63.25
2023-04-09T09:18:49.195Z,64.93
2023-04-09T09:21:59.155Z,62.78
2023-04-09T09:25:01.730Z,61.96
2023-04-09T09:28:12.150Z,62.03
2023-04-09T09:31:16.094Z,63.05
2023-04-09T09:34:21.840Z,62.36
2023-04-09T09:37:28.263Z,61.45
2023-04-09T09:40:30.926Z,62.88
2023-04-09T09:43:42.591Z,62.14
2023-04-09T09:46:45.698Z,60.78
2023-04-09T09:49:50.334Z,61.60
2023-04-09T09:53:03.279Z,59.44
2023-04-09T09:56:06.965Z,59.54
2023-04-09T09:59:23.912Z,59.82
2023-04-09T10:02:31.416Z,60.88
2023-04-09T10:05:39.254Z,60.13
2023-04-09T10:08:43.253Z,59.83
2023-04-09T10:11:48.118Z,59.90
2023-04-09T10:14:53.048Z,61.35
2023-04-09T10:17:56.230Z,60.12
2023-04-09T10:21:04.058Z,60.75
2023-04-09T10:24:08.159Z,59.80
2023-04-09T10:27:17.099Z,59.64
2023-04-09T10:30:36.746Z,58.49
2023-04-09T10:33:39.690Z,57.89
2023-04-09T10:37:00.227Z,58.75
2023-04-09T10:40:04.075Z,58.97
2023-04-09T10:43:09.826Z,60.57
2023-04-09T10:46:36.525Z,61.02
2023-04-09T10:49:42.698Z,58.88
2023-04-09T10:52:45.662Z,58.46
2023-04-09T10:55:53.242Z,59.67
2023-04-09T10:58:55.869Z,60.06
2023-04-09T11:01:58.546Z,59.68
2023-04-09T11:05:28.295Z,59.61
2023-04-09T11:08:32.779Z,58.35
2023-04-09T11:11:36.557Z,59.24
2023-04-09T11:14:39.553Z,60.05
2023-04-09T11:17:43.297Z,58.47
2023-04-09T11:20:46.336Z,56.58
2023-04-09T11:23:53.069Z,55.13
2023-04-09T11:26:56.796Z,55.34
2023-04-09T11:29:59.313Z,55.03
2023-04-09T11:33:02.438Z,52.88
2023-04-09T11:36:06.865Z,53.00
2023-04-09T11:39:09.472Z,55.57
2023-04-09T11:42:16.456Z,53.18
2023-04-09T11:45:21.265Z,54.42
2023-04-09T11:48:24.953Z,55.53
2023-04-09T11:51:30.866Z,52.81
2023-04-09T11:54:34.137Z,51.71
2023-04-09T11:57:47.373Z,52.91
2023-04-09T12:00:54.318Z,53.03
2023-04-09T12:03:57.083Z,51.28
2023-04-09T12:06:59.726Z,51.12
2023-04-09T12:10:10.269Z,52.45
2023-04-09T12:13:13.786Z,52.07
2023-04-09T12:16:20.733Z,53.06
2023-04-09T12:19:25.536Z,52.65
2023-04-09T12:22:28.480Z,51.89
2023-04-09T12:25:32.815Z,52.26
2023-04-09T12:28:35.521Z,51.28
2023-04-09T12:31:38.150Z,52.61
2023-04-09T12:34:41.486Z,51.71
2023-04-09T12:37:44.803Z,50.62
2023-04-09T12:40:48.720Z,48.22
2023-04-09T12:43:51.441Z,48.22
2023-04-09T12:46:58.914Z,48.77
2023-04-09T12:50:01.477Z,46.82
2023-04-09T12:53:03.974Z,46.91
2023-04-09T12:56:07.471Z,48.33
2023-04-09T12:59:09.942Z,46.33
2023-04-09T13:02:13.145Z,46.79
2023-04-09T13:05:16.852Z,44.00
2023-04-09T13:08:19.532Z,42.37
2023-04-09T13:11:22.206Z,43.02
2023-04-09T13:14:24.714Z,41.07
2023-04-09T13:17:27.281Z,41.37
2023-04-09T13:20:30.788Z,44.00
2023-04-09T13:23:33.301Z,43.39
2023-04-09T13:26:35.996Z,43.62
2023-04-09T13:29:38.763Z,42.70
2023-04-09T13:32:42.300Z,38.14
2023-04-09T13:35:45.111Z,38.30
2023-04-09T13:38:48.978Z,38.29
2023-04-09T13:41:51.537Z,36.58
2023-04-09T13:44:55.829Z,36.15
2023-04-09T13:47:58.409Z,34.79
2023-04-09T13:51:01.069Z,36.13
2023-04-09T13:54:05.776Z,34.90
2023-04-09T13:57:09.038Z,35.50
2023-04-09T14:00:12.130Z,36.71
2023-04-09T14:03:14.937Z,34.76
2023-04-09T14:06:17.753Z,35.49
2023-04-09T14:09:20.382Z,34.87
2023-04-09T14:12:23.072Z,39.41
2023-04-09T14:15:25.667Z,41.74
2023-04-09T14:18:28.263Z,42.18
2023-04-09T14:21:30.769Z,44.59
2023-04-09T14:24:40.018Z,45.47
2023-04-09T14:27:42.854Z,46.54
2023-04-09T14:30:45.738Z,46.96
2023-04-09T14:33:48.848Z,47.71
2023-04-09T14:36:51.416Z,45.67
2023-04-09T14:39:53.940Z,46.10
2023-04-09T14:42:56.549Z,48.50
2023-04-09T14:45:58.974Z,47.33
2023-04-09T14:49:01.679Z,47.47
2023-04-09T14:52:04.308Z,48.45
2023-04-09T14:55:12.223Z,47.84
2023-04-09T14:58:15.913Z,49.03
2023-04-09T15:01:18.524Z,49.32
2023-04-09T15:04:22.164Z,49.42
2023-04-09T15:07:25.310Z,49.91
2023-04-09T15:10:28.315Z,50.55
2023-04-09T15:13:31.108Z,51.77
2023-04-09T15:16:37.392Z,51.07
2023-04-09T15:19:40.389Z,53.15
2023-04-09T15:22:42.896Z,50.59
2023-04-09T15:25:48.213Z,50.94
2023-04-09T15:28:51.458Z,51.38
2023-04-09T15:31:54.770Z,51.19
2023-04-09T15:34:57.805Z,52.14
2023-04-09T15:38:00.633Z,52.84
2023-04-09T15:41:05.292Z,53.72
2023-04-09T15:44:08.733Z,54.89
2023-04-09T15:47:11.285Z,54.58
2023-04-09T15:50:14.796Z,54.80
2023-04-09T15:53:17.286Z,55.66
2023-04-09T15:56:20.347Z,56.40
2023-04-09T15:59:22.910Z,56.31
2023-04-09T16:02:26.643Z,55.96
2023-04-09T16:05:29.317Z,56.55
2023-04-09T16:08:32.703Z,57.29
2023-04-09T16:11:36.416Z,57.27
2023-04-09T16:14:40.385Z,56.84
2023-04-09T16:17:43.027Z,57.52
2023-04-09T16:20:45.598Z,56.96
2023-04-09T16:23:48.211Z,57.17
2023-04-09T16:26:50.687Z,57.08
2023-04-09T16:29:53.139Z,57.41
2023-04-09T16:32:55.759Z,57.77
2023-04-09T16:35:58.454Z,57.92
2023-04-09T16:39:01.717Z,57.97
2023-04-09T16:42:04.366Z,57.98
2023-04-09T16:45:07.362Z,59.86
2023-04-09T16:48:12.552Z,59.17
2023-04-09T16:51:15.567Z,59.96
2023-04-09T16:54:18.034Z,59.33
2023-04-09T16:57:21.721Z,61.02
2023-04-09T17:00:24.497Z,60.58
2023-04-09T17:03:27.127Z,59.83
2023-04-09T17:06:29.798Z,59.42
2023-04-09T17:09:32.257Z,59.57
2023-04-09T17:12:34.805Z,60.53
2023-04-09T17:15:37.732Z,61.08
2023-04-09T17:18:40.379Z,61.39
2023-04-09T17:21:42.911Z,61.61
2023-04-09T17:24:45.570Z,61.33
2023-04-09T17:27:48.119Z,61.65
2023-04-09T17:30:50.861Z,62.68
2023-04-09T17:33:53.587Z,63.00
2023-04-09T17:37:00.110Z,63.61
2023-04-09T17:40:03.028Z,63.98
2023-04-09T17:43:07.780Z,64.21
2023-04-09T17:46:11.591Z,66.37
2023-04-09T17:49:14.295Z,65.56
2023-04-09T17:52:16.781Z,65.88
2023-04-09T17:55:19.332Z,65.68
2023-04-09T17:58:22.575Z,66.12
2023-04-09T18:01:25.128Z,66.45
2023-04-09T18:04:28.005Z,66.60
2023-04-09T18:07:33.931Z,66.29
2023-04-09T18:10:37.074Z,66.83
2023-04-09T18:13:39.684Z,66.94
2023-04-09T18:16:42.327Z,67.17
2023-04-09T18:19:44.892Z,66.91
2023-04-09T18:22:47.802Z,67.67
2023-04-09T18:25:50.577Z,67.57
2023-04-09T18:28:53.460Z,67.74
2023-04-09T18:31:57.430Z,68.03
2023-04-09T18:34:59.994Z,67.67
2023-04-09T18:38:02.580Z,68.01
2023-04-09T18:41:05.985Z,67.72
2023-04-09T18:44:08.605Z,69.14
2023-04-09T18:47:11.509Z,69.61
2023-04-09T18:50:15.680Z,69.30
2023-04-09T18:53:18.388Z,69.32
2023-04-09T18:56:21.247Z,69.78
2023-04-09T18:59:24.173Z,70.22
2023-04-09T19:02:26.861Z,70.57
2023-04-09T19:05:33.206Z,70.69
2023-04-09T19:08:38.425Z,70.93
2023-04-09T19:11:41.112Z,71.46
2023-04-09T19:14:43.779Z,71.41
2023-04-09T19:17:46.582Z,72.00
2023-04-09T19:20:49.244Z,73.18
2023-04-09T19:23:51.727Z,73.33
2023-04-09T19:26:55.181Z,73.84
2023-04-09T19:29:59.944Z,74.45
2023-04-09T19:33:02.542Z,76.12
2023-04-09T19:36:07.870Z,76.24
2023-04-09T19:39:11.202Z,76.71
2023-04-09T19:42:13.679Z,77.92
2023-04-09T19:45:16.228Z,78.54
2023-04-09T19:48:18.812Z,78.66
2023-04-09T19:51:22.054Z,79.25
2023-04-09T19:54:24.551Z,80.30
2023-04-09T19:57:27.151Z,81.41
2023-04-09T20:00:29.691Z,81.45
2023-04-09T20:03:32.939Z,81.78
2023-04-09T20:06:35.609Z,81.98
2023-04-09T20:09:41.392Z,82.45
2023-04-09T20:12:47.544Z,82.94
2023-04-09T20:15:50.232Z,83.19
2023-04-09T20:18:53.050Z,83.49
2023-04-09T20:21:56.193Z,83.99
2023-04-09T20:24:59.976Z,83.73
2023-04-09T20:28:03.802Z,84.08
2023-04-09T20:31:06.425Z,84.50
2023-04-09T20:34:08.885Z,84.54
2023-04-09T20:37:11.602Z,84.74
2023-04-09T20:40:14.669Z,84.51
2023-04-09T20:43:25.133Z,84.88
2023-04-09T20:46:27.705Z,84.86
2023-04-09T20:49:30.359Z,85.29
2023-04-09T20:52:32.872Z,85.42
2023-04-09T20:55:35.741Z,85.56
2023-04-09T20:58:39.062Z,85.60
2023-04-09T21:01:41.671Z,85.67
2023-04-09T21:04:44.363Z,85.75
2023-04-09T21:07:46.857Z,85.72
2023-04-09T21:10:49.342Z,86.05
2023-04-09T21:13:55.149Z,86.23
2023-04-09T21:16:58.401Z,86.25
2023-04-09T21:20:01.041Z,86.50
2023-04-09T21:23:03.674Z,86.94
2023-04-09T21:26:06.390Z,86.82
2023-04-09T21:29:09.050Z,86.95
2023-04-09T21:32:12.001Z,87.01
2023-04-09T21:35:14.501Z,86.95
2023-04-09T21:38:16.969Z,87.19
2023-04-09T21:41:19.809Z,86.71
2023-04-09T21:44:22.729Z,87.37
2023-04-09T21:47:26.531Z,87.03
2023-04-09T21:50:32.180Z,87.55
2023-04-09T21:53:34.639Z,87.86
2023-04-09T21:56:39.062Z,87.77
2023-04-09T21:59:41.822Z,87.59
2023-04-09T22:02:53.272Z,87.84
2023-04-09T22:05:56.869Z,87.67
2023-04-09T22:08:59.848Z,87.70
2023-04-09T22:12:03.214Z,88.01
2023-04-09T22:15:06.457Z,88.10
2023-04-09T22:18:08.912Z,87.89
2023-04-09T22:21:16.074Z,88.01
2023-04-09T22:24:19.372Z,87.94
2023-04-09T22:27:21.872Z,88.29
2023-04-09T22:30:24.630Z,88.20
2023-04-09T22:33:27.407Z,88.16
2023-04-09T22:36:29.975Z,87.95
2023-04-09T22:39:33.672Z,88.02
2023-04-09T22:42:36.524Z,88.28
2023-04-09T22:45:39.170Z,88.33
2023-04-09T22:48:44.977Z,88.55
2023-04-09T22:51:48.514Z,87.77
2023-04-09T22:54:51.534Z,88.38
2023-04-09T22:57:55.308Z,88.06
2023-04-09T23:00:58.247Z,88.78
2023-04-09T23:04:01.599Z,88.49
2023-04-09T23:07:04.100Z,88.83
2023-04-09T23:10:07.228Z,88.63
2023-04-09T23:13:13.544Z,89.04
2023-04-09T23:16:16.279Z,88.88
2023-04-09T23:19:18.856Z,88.58
2023-04-09T23:22:21.774Z,88.89
2023-04-09T23:25:24.332Z,89.09
2023-04-09T23:28:27.010Z,89.22
2023-04-09T23:31:29.641Z,89.48
2023-04-09T23:34:32.606Z,89.17
2023-04-09T23:37:35.151Z,89.17
2023-04-09T23:40:37.732Z,89.24
2023-04-09T23:43:41.314Z,89.15
2023-04-09T23:46:43.803Z,89.31
2023-04-09T23:49:46.823Z,89.07
2023-04-09T23:52:50.873Z,89.30
2023-04-09T23:55:53.414Z,89.38
2023-04-09T23:58:56.380Z,89.24
